UAL146 KEWR-EGLL
Flight info
| Callsign | UAL146 |
|---|---|
| Flight time | N/A |
| Altitude | 37000 |
| Route | GREKI DCT JUDDS DCT MARTN DCT TAFFY DCT JANJO/M083F370 DCT 56N050W 57N040W 58N030W 58N020W DCT AGORI/N0484F370 DCT OSBOX DCT MIMKU DCT KELLY L10 WAL UY53 NUGRA |
| Aircraft | B772/H-SDE2E3FGHIJ5LORVWXY/A1E2C4 |
Departure
| Time | 2026-05-07 16:21 |
|---|---|
| Airport | Newark Liberty International Airport (KEWR) |
Arrival
| Time | N/A |
|---|---|
| Airport | London Heathrow Airport (EGLL) |
| Time | Latitude | Longitude | Altitude | Speed | Heading |
|---|---|---|---|---|---|
| 2026-05-07 15:54 | 40.69407 | -74.17363 | 22 ft | 0 kts | 14° |
| 2026-05-07 16:09 | 40.69406 | -74.17364 | 22 ft | 1 kts | 14° |
| 2026-05-07 16:09 | 40.69392 | -74.17368 | 22 ft | 2 kts | 14° |
| 2026-05-07 16:10 | 40.69378 | -74.17373 | 22 ft | 2 kts | 14° |
| 2026-05-07 16:10 | 40.69363 | -74.17378 | 22 ft | 2 kts | 15° |
| 2026-05-07 16:10 | 40.69349 | -74.17386 | 22 ft | 2 kts | 46° |
| 2026-05-07 16:10 | 40.69341 | -74.17402 | 22 ft | 2 kts | 72° |
| 2026-05-07 16:11 | 40.69339 | -74.17422 | 22 ft | 1 kts | 96° |
| 2026-05-07 16:11 | 40.69340 | -74.17430 | 22 ft | 1 kts | 102° |
| 2026-05-07 16:11 | 40.69340 | -74.17431 | 22 ft | 0 kts | 102° |
| 2026-05-07 16:12 | 40.69339 | -74.17425 | 22 ft | 4 kts | 101° |
| 2026-05-07 16:13 | 40.69317 | -74.17338 | 22 ft | 10 kts | 112° |
| 2026-05-07 16:13 | 40.69281 | -74.17249 | 22 ft | 8 kts | 123° |
| 2026-05-07 16:13 | 40.69273 | -74.17235 | 22 ft | 0 kts | 121° |
| 2026-05-07 16:14 | 40.69256 | -74.17195 | 22 ft | 11 kts | 122° |
| 2026-05-07 16:14 | 40.69201 | -74.17175 | 22 ft | 10 kts | 205° |
| 2026-05-07 16:15 | 40.69093 | -74.17242 | 22 ft | 19 kts | 205° |
| 2026-05-07 16:15 | 40.68972 | -74.17319 | 22 ft | 19 kts | 206° |
| 2026-05-07 16:15 | 40.68854 | -74.17394 | 22 ft | 18 kts | 205° |
| 2026-05-07 16:15 | 40.68738 | -74.17467 | 22 ft | 18 kts | 206° |
| 2026-05-07 16:16 | 40.68623 | -74.17539 | 22 ft | 18 kts | 205° |
| 2026-05-07 16:16 | 40.68510 | -74.17610 | 22 ft | 18 kts | 206° |
| 2026-05-07 16:16 | 40.68391 | -74.17685 | 22 ft | 19 kts | 206° |
| 2026-05-07 16:16 | 40.68285 | -74.17752 | 22 ft | 14 kts | 206° |
| 2026-05-07 16:17 | 40.68196 | -74.17808 | 22 ft | 12 kts | 205° |
| 2026-05-07 16:17 | 40.68124 | -74.17854 | 22 ft | 0 kts | 206° |
| 2026-05-07 16:17 | 40.68110 | -74.17863 | 22 ft | 7 kts | 206° |
| 2026-05-07 16:17 | 40.68022 | -74.17921 | 22 ft | 14 kts | 206° |
| 2026-05-07 16:18 | 40.67944 | -74.17970 | 22 ft | 9 kts | 204° |
| 2026-05-07 16:18 | 40.67898 | -74.17998 | 22 ft | 0 kts | 205° |
| 2026-05-07 16:18 | 40.67889 | -74.18003 | 22 ft | 6 kts | 205° |
| 2026-05-07 16:18 | 40.67833 | -74.18037 | 22 ft | 9 kts | 205° |
| 2026-05-07 16:19 | 40.67770 | -74.18076 | 22 ft | 15 kts | 205° |
| 2026-05-07 16:19 | 40.67683 | -74.18123 | 22 ft | 9 kts | 178° |
| 2026-05-07 16:19 | 40.67627 | -74.18079 | 22 ft | 5 kts | 135° |
| 2026-05-07 16:19 | 40.67609 | -74.18055 | 22 ft | 0 kts | 131° |
| 2026-05-07 16:20 | 40.67603 | -74.18047 | 22 ft | 1 kts | 131° |
| 2026-05-07 16:20 | 40.67588 | -74.18024 | 22 ft | 8 kts | 128° |
| 2026-05-07 16:20 | 40.67591 | -74.17924 | 22 ft | 13 kts | 42° |
| 2026-05-07 16:20 | 40.67637 | -74.17888 | 22 ft | 0 kts | 26° |
| 2026-05-07 16:21 | 40.67826 | -74.17767 | 22 ft | 64 kts | 25° |
| 2026-05-07 16:21 | 40.68439 | -74.17379 | 23 ft | 127 kts | 25° |
| 2026-05-07 16:21 | 40.69370 | -74.16780 | 160 ft | 161 kts | 27° |
| 2026-05-07 16:21 | 40.70340 | -74.16010 | 723 ft | 168 kts | 34° |
| 2026-05-07 16:22 | 40.71222 | -74.15015 | 1421 ft | 166 kts | 44° |
| 2026-05-07 16:22 | 40.72037 | -74.13879 | 1775 ft | 178 kts | 45° |
| 2026-05-07 16:22 | 40.72935 | -74.12718 | 2183 ft | 185 kts | 40° |
| 2026-05-07 16:22 | 40.73942 | -74.11646 | 2611 ft | 191 kts | 31° |
| 2026-05-07 16:23 | 40.75131 | -74.10894 | 3149 ft | 191 kts | 21° |
| 2026-05-07 16:23 | 40.76339 | -74.10152 | 3719 ft | 193 kts | 25° |
| 2026-05-07 16:23 | 40.77590 | -74.09236 | 3955 ft | 212 kts | 27° |
| 2026-05-07 16:23 | 40.78905 | -74.08203 | 4252 ft | 231 kts | 34° |
| 2026-05-07 16:24 | 40.80036 | -74.06558 | 4599 ft | 255 kts | 58° |
| 2026-05-07 16:24 | 40.80642 | -74.04282 | 5068 ft | 272 kts | 75° |
| 2026-05-07 16:24 | 40.80984 | -74.01768 | 5708 ft | 280 kts | 77° |
| 2026-05-07 16:24 | 40.81305 | -73.99232 | 6372 ft | 286 kts | 78° |
| 2026-05-07 16:25 | 40.81632 | -73.96617 | 7067 ft | 291 kts | 77° |
| 2026-05-07 16:25 | 40.81990 | -73.93955 | 7736 ft | 295 kts | 72° |
| 2026-05-07 16:25 | 40.82750 | -73.91464 | 8362 ft | 296 kts | 58° |
| 2026-05-07 16:25 | 40.83743 | -73.89043 | 8994 ft | 302 kts | 57° |
| 2026-05-07 16:26 | 40.84768 | -73.86590 | 9623 ft | 308 kts | 57° |
| 2026-05-07 16:26 | 40.85919 | -73.84164 | 10187 ft | 312 kts | 44° |
| 2026-05-07 16:26 | 40.87597 | -73.82321 | 10432 ft | 325 kts | 28° |
| 2026-05-07 16:26 | 40.88914 | -73.81209 | 10608 ft | 339 kts | 27° |
| 2026-05-07 16:27 | 40.91680 | -73.78895 | 10985 ft | 365 kts | 28° |
| 2026-05-07 16:27 | 40.93897 | -73.77050 | 11295 ft | 384 kts | 27° |
| 2026-05-07 16:27 | 40.96199 | -73.75120 | 11611 ft | 402 kts | 28° |
| 2026-05-07 16:27 | 40.98584 | -73.73114 | 12047 ft | 415 kts | 28° |
| 2026-05-07 16:28 | 41.01059 | -73.71044 | 12655 ft | 423 kts | 28° |
| 2026-05-07 16:28 | 41.03577 | -73.68939 | 13287 ft | 429 kts | 28° |
| 2026-05-07 16:28 | 41.06126 | -73.66803 | 13902 ft | 436 kts | 28° |
| 2026-05-07 16:28 | 41.08699 | -73.64646 | 14542 ft | 442 kts | 27° |
| 2026-05-07 16:29 | 41.11314 | -73.62456 | 15157 ft | 447 kts | 27° |
| 2026-05-07 16:29 | 41.13957 | -73.60242 | 15749 ft | 453 kts | 27° |
| 2026-05-07 16:29 | 41.16642 | -73.57985 | 16346 ft | 459 kts | 27° |
| 2026-05-07 16:29 | 41.19345 | -73.55708 | 16943 ft | 463 kts | 27° |
| 2026-05-07 16:30 | 41.22082 | -73.53400 | 17527 ft | 468 kts | 27° |
| 2026-05-07 16:30 | 41.24852 | -73.51062 | 18098 ft | 473 kts | 27° |
| 2026-05-07 16:30 | 41.27637 | -73.48709 | 18656 ft | 477 kts | 27° |
| 2026-05-07 16:30 | 41.30449 | -73.46331 | 19211 ft | 481 kts | 27° |
| 2026-05-07 16:31 | 41.33293 | -73.43922 | 19758 ft | 485 kts | 26° |
| 2026-05-07 16:31 | 41.36163 | -73.41489 | 20292 ft | 489 kts | 26° |
| 2026-05-07 16:31 | 41.39027 | -73.39058 | 20805 ft | 493 kts | 26° |
| 2026-05-07 16:31 | 41.41949 | -73.36574 | 21308 ft | 498 kts | 26° |
| 2026-05-07 16:32 | 41.44884 | -73.34076 | 21791 ft | 502 kts | 27° |
| 2026-05-07 16:32 | 41.47756 | -73.31432 | 22197 ft | 512 kts | 34° |
| 2026-05-07 16:32 | 41.50454 | -73.28186 | 22599 ft | 522 kts | 40° |
| 2026-05-07 16:32 | 41.53013 | -73.24804 | 23013 ft | 526 kts | 41° |
| 2026-05-07 16:33 | 41.55674 | -73.21345 | 23425 ft | 527 kts | 37° |
| 2026-05-07 16:33 | 41.58581 | -73.18360 | 23818 ft | 524 kts | 27° |
| 2026-05-07 16:33 | 41.61736 | -73.15990 | 24199 ft | 519 kts | 17° |
| 2026-05-07 16:33 | 41.65046 | -73.14281 | 24575 ft | 512 kts | 8° |
| 2026-05-07 16:34 | 41.68532 | -73.13214 | 24970 ft | 503 kts | 359° |
| 2026-05-07 16:34 | 41.71975 | -73.12830 | 25367 ft | 493 kts | 349° |